sensor_id;sensor_type;location;lat;lon;timestamp;P1;durP1;ratioP1;P2;durP2;ratioP2
3036;SDS011;1528;52.550;13.408;2022-10-31T00:00:26;37.03;;;33.53;;
3036;SDS011;1528;52.550;13.408;2022-10-31T00:03:12;38.30;;;35.20;;
3036;SDS011;1528;52.550;13.408;2022-10-31T00:05:57;36.93;;;34.10;;
3036;SDS011;1528;52.550;13.408;2022-10-31T00:08:46;35.80;;;33.30;;
3036;SDS011;1528;52.550;13.408;2022-10-31T00:11:32;38.23;;;35.07;;
3036;SDS011;1528;52.550;13.408;2022-10-31T00:14:18;38.27;;;34.87;;
3036;SDS011;1528;52.550;13.408;2022-10-31T00:17:03;38.70;;;35.70;;
3036;SDS011;1528;52.550;13.408;2022-10-31T00:19:48;37.40;;;34.40;;
3036;SDS011;1528;52.550;13.408;2022-10-31T00:22:34;37.73;;;34.73;;
3036;SDS011;1528;52.550;13.408;2022-10-31T00:25:21;36.23;;;33.10;;
3036;SDS011;1528;52.550;13.408;2022-10-31T00:28:07;35.33;;;32.47;;
3036;SDS011;1528;52.550;13.408;2022-10-31T00:30:55;37.07;;;34.10;;
3036;SDS011;1528;52.550;13.408;2022-10-31T00:33:43;36.07;;;32.90;;
3036;SDS011;1528;52.550;13.408;2022-10-31T00:36:28;36.00;;;32.70;;
3036;SDS011;1528;52.550;13.408;2022-10-31T00:39:14;35.50;;;32.80;;
3036;SDS011;1528;52.550;13.408;2022-10-31T00:42:01;34.67;;;31.70;;
3036;SDS011;1528;52.550;13.408;2022-10-31T00:44:46;35.60;;;33.03;;
3036;SDS011;1528;52.550;13.408;2022-10-31T00:47:32;34.60;;;32.00;;
3036;SDS011;1528;52.550;13.408;2022-10-31T00:50:17;31.83;;;28.97;;
3036;SDS011;1528;52.550;13.408;2022-10-31T00:53:03;31.13;;;28.50;;
3036;SDS011;1528;52.550;13.408;2022-10-31T00:55:48;31.17;;;28.90;;
3036;SDS011;1528;52.550;13.408;2022-10-31T00:58:35;28.37;;;26.00;;
3036;SDS011;1528;52.550;13.408;2022-10-31T01:01:20;31.70;;;29.10;;
3036;SDS011;1528;52.550;13.408;2022-10-31T01:04:06;30.17;;;28.00;;
3036;SDS011;1528;52.550;13.408;2022-10-31T01:06:52;29.13;;;26.30;;
3036;SDS011;1528;52.550;13.408;2022-10-31T01:09:37;26.77;;;24.43;;
3036;SDS011;1528;52.550;13.408;2022-10-31T01:12:23;29.87;;;27.37;;
3036;SDS011;1528;52.550;13.408;2022-10-31T01:15:11;27.80;;;25.80;;
3036;SDS011;1528;52.550;13.408;2022-10-31T01:17:57;27.93;;;25.17;;
3036;SDS011;1528;52.550;13.408;2022-10-31T01:20:43;28.07;;;25.77;;
3036;SDS011;1528;52.550;13.408;2022-10-31T01:23:28;27.83;;;25.63;;
3036;SDS011;1528;52.550;13.408;2022-10-31T01:26:15;26.60;;;24.40;;
3036;SDS011;1528;52.550;13.408;2022-10-31T01:29:03;27.40;;;25.10;;
3036;SDS011;1528;52.550;13.408;2022-10-31T01:31:51;27.37;;;25.07;;
3036;SDS011;1528;52.550;13.408;2022-10-31T01:34:37;26.50;;;24.63;;
3036;SDS011;1528;52.550;13.408;2022-10-31T01:37:22;22.93;;;21.10;;
3036;SDS011;1528;52.550;13.408;2022-10-31T01:40:08;26.60;;;24.10;;
3036;SDS011;1528;52.550;13.408;2022-10-31T01:42:54;25.70;;;24.07;;
3036;SDS011;1528;52.550;13.408;2022-10-31T01:45:40;25.47;;;23.47;;
3036;SDS011;1528;52.550;13.408;2022-10-31T01:48:28;24.30;;;22.50;;
3036;SDS011;1528;52.550;13.408;2022-10-31T01:51:14;24.87;;;22.40;;
3036;SDS011;1528;52.550;13.408;2022-10-31T01:54:03;25.27;;;23.33;;
3036;SDS011;1528;52.550;13.408;2022-10-31T01:56:50;24.20;;;22.20;;
3036;SDS011;1528;52.550;13.408;2022-10-31T01:59:41;24.93;;;22.70;;
3036;SDS011;1528;52.550;13.408;2022-10-31T02:02:30;23.97;;;21.80;;
3036;SDS011;1528;52.550;13.408;2022-10-31T02:05:18;24.67;;;22.57;;
3036;SDS011;1528;52.550;13.408;2022-10-31T02:08:06;26.07;;;23.60;;
3036;SDS011;1528;52.550;13.408;2022-10-31T02:10:54;24.97;;;22.83;;
3036;SDS011;1528;52.550;13.408;2022-10-31T02:13:41;25.00;;;23.10;;
3036;SDS011;1528;52.550;13.408;2022-10-31T02:16:26;24.33;;;22.33;;
3036;SDS011;1528;52.550;13.408;2022-10-31T02:19:12;25.20;;;23.10;;
3036;SDS011;1528;52.550;13.408;2022-10-31T02:22:05;23.67;;;21.87;;
3036;SDS011;1528;52.550;13.408;2022-10-31T02:24:58;25.63;;;23.40;;
3036;SDS011;1528;52.550;13.408;2022-10-31T02:28:06;25.40;;;23.00;;
3036;SDS011;1528;52.550;13.408;2022-10-31T02:31:14;24.20;;;22.03;;
3036;SDS011;1528;52.550;13.408;2022-10-31T02:34:09;24.97;;;22.97;;
3036;SDS011;1528;52.550;13.408;2022-10-31T02:37:06;24.77;;;22.30;;
3036;SDS011;1528;52.550;13.408;2022-10-31T02:39:58;25.47;;;22.93;;
3036;SDS011;1528;52.550;13.408;2022-10-31T02:42:51;26.67;;;24.07;;
3036;SDS011;1528;52.550;13.408;2022-10-31T02:45:45;25.83;;;23.13;;
3036;SDS011;1528;52.550;13.408;2022-10-31T02:48:37;24.27;;;22.13;;
3036;SDS011;1528;52.550;13.408;2022-10-31T02:51:24;24.17;;;22.10;;
3036;SDS011;1528;52.550;13.408;2022-10-31T02:54:21;25.30;;;23.20;;
3036;SDS011;1528;52.550;13.408;2022-10-31T02:57:08;26.23;;;24.10;;
3036;SDS011;1528;52.550;13.408;2022-10-31T02:59:54;26.97;;;24.43;;
3036;SDS011;1528;52.550;13.408;2022-10-31T03:02:45;25.97;;;23.33;;
3036;SDS011;1528;52.550;13.408;2022-10-31T03:05:47;23.47;;;21.17;;
3036;SDS011;1528;52.550;13.408;2022-10-31T03:08:39;25.60;;;23.57;;
3036;SDS011;1528;52.550;13.408;2022-10-31T03:11:34;24.80;;;22.50;;
3036;SDS011;1528;52.550;13.408;2022-10-31T03:14:29;23.73;;;21.83;;
3036;SDS011;1528;52.550;13.408;2022-10-31T03:17:21;26.47;;;24.13;;
3036;SDS011;1528;52.550;13.408;2022-10-31T03:20:10;27.07;;;24.40;;
3036;SDS011;1528;52.550;13.408;2022-10-31T03:22:57;26.03;;;24.13;;
3036;SDS011;1528;52.550;13.408;2022-10-31T03:25:45;22.80;;;21.30;;
3036;SDS011;1528;52.550;13.408;2022-10-31T03:28:33;22.90;;;21.10;;
3036;SDS011;1528;52.550;13.408;2022-10-31T03:31:25;24.13;;;22.13;;
3036;SDS011;1528;52.550;13.408;2022-10-31T03:34:17;23.87;;;21.87;;
3036;SDS011;1528;52.550;13.408;2022-10-31T03:37:06;25.83;;;23.93;;
3036;SDS011;1528;52.550;13.408;2022-10-31T03:39:55;25.47;;;23.30;;
3036;SDS011;1528;52.550;13.408;2022-10-31T03:42:43;22.67;;;21.10;;
3036;SDS011;1528;52.550;13.408;2022-10-31T03:45:36;23.37;;;21.50;;
3036;SDS011;1528;52.550;13.408;2022-10-31T03:48:26;21.50;;;19.87;;
3036;SDS011;1528;52.550;13.408;2022-10-31T03:51:13;23.43;;;21.53;;
3036;SDS011;1528;52.550;13.408;2022-10-31T03:54:02;24.20;;;22.20;;
3036;SDS011;1528;52.550;13.408;2022-10-31T03:56:54;21.93;;;20.23;;
3036;SDS011;1528;52.550;13.408;2022-10-31T03:59:44;22.97;;;21.17;;
3036;SDS011;1528;52.550;13.408;2022-10-31T04:02:32;22.23;;;20.47;;
3036;SDS011;1528;52.550;13.408;2022-10-31T04:05:22;22.63;;;20.53;;
3036;SDS011;1528;52.550;13.408;2022-10-31T04:08:09;22.50;;;20.57;;
3036;SDS011;1528;52.550;13.408;2022-10-31T04:10:59;22.97;;;21.13;;
3036;SDS011;1528;52.550;13.408;2022-10-31T04:13:48;20.90;;;19.30;;
3036;SDS011;1528;52.550;13.408;2022-10-31T04:16:36;20.60;;;19.20;;
3036;SDS011;1528;52.550;13.408;2022-10-31T04:19:22;22.97;;;20.90;;
3036;SDS011;1528;52.550;13.408;2022-10-31T04:22:07;22.07;;;20.37;;
3036;SDS011;1528;52.550;13.408;2022-10-31T04:24:53;20.90;;;19.10;;
3036;SDS011;1528;52.550;13.408;2022-10-31T04:27:39;21.67;;;20.07;;
3036;SDS011;1528;52.550;13.408;2022-10-31T04:30:26;20.70;;;18.70;;
3036;SDS011;1528;52.550;13.408;2022-10-31T04:33:11;20.90;;;19.20;;
3036;SDS011;1528;52.550;13.408;2022-10-31T04:35:57;22.40;;;20.50;;
3036;SDS011;1528;52.550;13.408;2022-10-31T04:38:42;22.00;;;20.17;;
3036;SDS011;1528;52.550;13.408;2022-10-31T04:41:28;22.30;;;20.30;;
3036;SDS011;1528;52.550;13.408;2022-10-31T04:44:14;21.37;;;19.67;;
3036;SDS011;1528;52.550;13.408;2022-10-31T04:47:01;22.37;;;20.43;;
3036;SDS011;1528;52.550;13.408;2022-10-31T04:49:47;22.93;;;20.57;;
3036;SDS011;1528;52.550;13.408;2022-10-31T04:52:38;21.30;;;19.40;;
3036;SDS011;1528;52.550;13.408;2022-10-31T04:55:23;24.20;;;21.93;;
3036;SDS011;1528;52.550;13.408;2022-10-31T04:58:09;23.73;;;21.33;;
3036;SDS011;1528;52.550;13.408;2022-10-31T05:00:54;22.23;;;20.27;;
3036;SDS011;1528;52.550;13.408;2022-10-31T05:03:42;21.07;;;19.57;;
3036;SDS011;1528;52.550;13.408;2022-10-31T05:06:27;21.23;;;19.57;;
3036;SDS011;1528;52.550;13.408;2022-10-31T05:09:13;22.03;;;19.83;;
3036;SDS011;1528;52.550;13.408;2022-10-31T05:11:58;22.77;;;20.83;;
3036;SDS011;1528;52.550;13.408;2022-10-31T05:14:44;21.13;;;19.10;;
3036;SDS011;1528;52.550;13.408;2022-10-31T05:17:30;22.80;;;21.00;;
3036;SDS011;1528;52.550;13.408;2022-10-31T05:20:23;23.13;;;21.23;;
3036;SDS011;1528;52.550;13.408;2022-10-31T05:23:10;23.87;;;21.80;;
3036;SDS011;1528;52.550;13.408;2022-10-31T05:25:55;22.47;;;20.60;;
3036;SDS011;1528;52.550;13.408;2022-10-31T05:28:41;22.20;;;20.30;;
3036;SDS011;1528;52.550;13.408;2022-10-31T05:31:26;23.17;;;21.00;;
3036;SDS011;1528;52.550;13.408;2022-10-31T05:34:12;23.27;;;20.77;;
3036;SDS011;1528;52.550;13.408;2022-10-31T05:36:59;24.47;;;22.27;;
3036;SDS011;1528;52.550;13.408;2022-10-31T05:39:45;22.57;;;20.90;;
3036;SDS011;1528;52.550;13.408;2022-10-31T05:42:30;24.23;;;20.83;;
3036;SDS011;1528;52.550;13.408;2022-10-31T05:45:16;21.90;;;20.20;;
3036;SDS011;1528;52.550;13.408;2022-10-31T05:48:02;22.60;;;20.40;;
3036;SDS011;1528;52.550;13.408;2022-10-31T05:50:49;21.20;;;19.60;;
3036;SDS011;1528;52.550;13.408;2022-10-31T05:53:35;24.40;;;22.40;;
3036;SDS011;1528;52.550;13.408;2022-10-31T05:56:21;24.27;;;22.07;;
3036;SDS011;1528;52.550;13.408;2022-10-31T05:59:07;22.80;;;21.20;;
3036;SDS011;1528;52.550;13.408;2022-10-31T06:01:52;22.37;;;20.53;;
3036;SDS011;1528;52.550;13.408;2022-10-31T06:04:38;22.77;;;20.70;;
3036;SDS011;1528;52.550;13.408;2022-10-31T06:07:23;23.90;;;21.80;;
3036;SDS011;1528;52.550;13.408;2022-10-31T06:10:10;25.10;;;23.00;;
3036;SDS011;1528;52.550;13.408;2022-10-31T06:12:55;23.40;;;21.40;;
3036;SDS011;1528;52.550;13.408;2022-10-31T06:15:41;25.10;;;23.23;;
3036;SDS011;1528;52.550;13.408;2022-10-31T06:18:26;23.43;;;21.23;;
3036;SDS011;1528;52.550;13.408;2022-10-31T06:21:12;23.90;;;21.60;;
3036;SDS011;1528;52.550;13.408;2022-10-31T06:23:57;22.47;;;20.30;;
3036;SDS011;1528;52.550;13.408;2022-10-31T06:26:44;22.30;;;20.20;;
3036;SDS011;1528;52.550;13.408;2022-10-31T06:29:30;21.90;;;19.87;;
3036;SDS011;1528;52.550;13.408;2022-10-31T06:32:15;22.00;;;19.90;;
3036;SDS011;1528;52.550;13.408;2022-10-31T06:35:01;21.37;;;19.50;;
3036;SDS011;1528;52.550;13.408;2022-10-31T06:37:50;21.70;;;19.50;;
3036;SDS011;1528;52.550;13.408;2022-10-31T06:40:36;23.60;;;21.60;;
3036;SDS011;1528;52.550;13.408;2022-10-31T06:43:22;22.73;;;20.93;;
3036;SDS011;1528;52.550;13.408;2022-10-31T06:46:08;22.30;;;20.57;;
3036;SDS011;1528;52.550;13.408;2022-10-31T06:48:53;24.70;;;22.40;;
3036;SDS011;1528;52.550;13.408;2022-10-31T06:51:39;23.37;;;21.23;;
3036;SDS011;1528;52.550;13.408;2022-10-31T06:54:24;22.70;;;20.77;;
3036;SDS011;1528;52.550;13.408;2022-10-31T06:57:10;22.97;;;20.90;;
3036;SDS011;1528;52.550;13.408;2022-10-31T06:59:57;22.97;;;21.03;;
3036;SDS011;1528;52.550;13.408;2022-10-31T07:02:42;23.87;;;21.90;;
3036;SDS011;1528;52.550;13.408;2022-10-31T07:05:28;21.33;;;19.40;;
3036;SDS011;1528;52.550;13.408;2022-10-31T07:08:14;25.97;;;23.77;;
3036;SDS011;1528;52.550;13.408;2022-10-31T07:11:00;24.40;;;22.20;;
3036;SDS011;1528;52.550;13.408;2022-10-31T07:13:45;25.57;;;23.67;;
3036;SDS011;1528;52.550;13.408;2022-10-31T07:16:32;26.00;;;23.93;;
3036;SDS011;1528;52.550;13.408;2022-10-31T07:19:18;24.73;;;22.53;;
3036;SDS011;1528;52.550;13.408;2022-10-31T07:22:03;22.63;;;20.73;;
3036;SDS011;1528;52.550;13.408;2022-10-31T07:24:49;27.50;;;25.10;;
3036;SDS011;1528;52.550;13.408;2022-10-31T07:27:35;27.00;;;24.80;;
3036;SDS011;1528;52.550;13.408;2022-10-31T07:30:21;26.97;;;24.93;;
3036;SDS011;1528;52.550;13.408;2022-10-31T07:33:08;28.10;;;26.40;;
3036;SDS011;1528;52.550;13.408;2022-10-31T07:35:53;25.67;;;23.67;;
3036;SDS011;1528;52.550;13.408;2022-10-31T07:38:39;28.93;;;26.90;;
3036;SDS011;1528;52.550;13.408;2022-10-31T07:41:24;31.90;;;29.60;;
3036;SDS011;1528;52.550;13.408;2022-10-31T07:44:10;26.33;;;23.90;;
3036;SDS011;1528;52.550;13.408;2022-10-31T07:46:55;23.40;;;21.60;;
3036;SDS011;1528;52.550;13.408;2022-10-31T07:49:42;27.03;;;24.73;;
3036;SDS011;1528;52.550;13.408;2022-10-31T07:52:28;24.87;;;22.80;;
3036;SDS011;1528;52.550;13.408;2022-10-31T07:55:13;24.60;;;22.57;;
3036;SDS011;1528;52.550;13.408;2022-10-31T07:58:00;28.93;;;26.23;;
3036;SDS011;1528;52.550;13.408;2022-10-31T08:00:48;26.47;;;23.47;;
3036;SDS011;1528;52.550;13.408;2022-10-31T08:03:34;27.67;;;25.67;;
3036;SDS011;1528;52.550;13.408;2022-10-31T08:06:20;27.03;;;24.80;;
3036;SDS011;1528;52.550;13.408;2022-10-31T08:09:06;24.33;;;22.60;;
3036;SDS011;1528;52.550;13.408;2022-10-31T08:11:52;25.43;;;23.33;;
3036;SDS011;1528;52.550;13.408;2022-10-31T08:14:37;26.90;;;24.80;;
3036;SDS011;1528;52.550;13.408;2022-10-31T08:17:22;31.40;;;28.67;;
3036;SDS011;1528;52.550;13.408;2022-10-31T08:20:08;32.90;;;30.50;;
3036;SDS011;1528;52.550;13.408;2022-10-31T08:22:56;28.83;;;26.43;;
3036;SDS011;1528;52.550;13.408;2022-10-31T08:25:43;32.17;;;29.60;;
3036;SDS011;1528;52.550;13.408;2022-10-31T08:28:30;37.60;;;34.60;;
3036;SDS011;1528;52.550;13.408;2022-10-31T08:31:16;37.00;;;34.13;;
3036;SDS011;1528;52.550;13.408;2022-10-31T08:34:01;32.00;;;29.23;;
3036;SDS011;1528;52.550;13.408;2022-10-31T08:36:47;31.73;;;28.83;;
3036;SDS011;1528;52.550;13.408;2022-10-31T08:39:34;30.43;;;28.00;;
3036;SDS011;1528;52.550;13.408;2022-10-31T08:42:19;32.47;;;30.23;;
3036;SDS011;1528;52.550;13.408;2022-10-31T08:45:05;33.57;;;30.97;;
3036;SDS011;1528;52.550;13.408;2022-10-31T08:47:51;30.83;;;27.93;;
3036;SDS011;1528;52.550;13.408;2022-10-31T08:50:37;32.70;;;30.10;;
3036;SDS011;1528;52.550;13.408;2022-10-31T08:53:23;33.87;;;31.07;;
3036;SDS011;1528;52.550;13.408;2022-10-31T08:56:10;32.03;;;29.60;;
3036;SDS011;1528;52.550;13.408;2022-10-31T08:58:55;31.80;;;29.60;;
3036;SDS011;1528;52.550;13.408;2022-10-31T09:01:41;31.50;;;28.93;;
3036;SDS011;1528;52.550;13.408;2022-10-31T09:04:26;29.53;;;27.17;;
3036;SDS011;1528;52.550;13.408;2022-10-31T09:07:12;30.17;;;27.77;;
3036;SDS011;1528;52.550;13.408;2022-10-31T09:09:58;33.83;;;31.10;;
3036;SDS011;1528;52.550;13.408;2022-10-31T09:12:45;31.83;;;29.30;;
3036;SDS011;1528;52.550;13.408;2022-10-31T09:15:30;31.43;;;28.57;;
3036;SDS011;1528;52.550;13.408;2022-10-31T09:18:16;36.43;;;33.53;;
3036;SDS011;1528;52.550;13.408;2022-10-31T09:21:03;30.83;;;28.43;;
3036;SDS011;1528;52.550;13.408;2022-10-31T09:23:49;35.40;;;32.30;;
3036;SDS011;1528;52.550;13.408;2022-10-31T09:26:37;34.00;;;31.40;;
3036;SDS011;1528;52.550;13.408;2022-10-31T09:29:24;34.40;;;31.27;;
3036;SDS011;1528;52.550;13.408;2022-10-31T09:32:09;35.43;;;32.73;;
3036;SDS011;1528;52.550;13.408;2022-10-31T09:34:54;34.60;;;31.83;;
3036;SDS011;1528;52.550;13.408;2022-10-31T09:37:40;35.03;;;31.87;;
3036;SDS011;1528;52.550;13.408;2022-10-31T09:40:27;40.77;;;37.73;;
3036;SDS011;1528;52.550;13.408;2022-10-31T09:43:19;39.13;;;36.13;;
3036;SDS011;1528;52.550;13.408;2022-10-31T09:46:19;39.00;;;35.90;;
3036;SDS011;1528;52.550;13.408;2022-10-31T09:52:23;38.83;;;35.73;;
3036;SDS011;1528;52.550;13.408;2022-10-31T09:55:15;36.10;;;33.40;;
3036;SDS011;1528;52.550;13.408;2022-10-31T09:58:03;47.27;;;43.47;;
3036;SDS011;1528;52.550;13.408;2022-10-31T10:00:49;40.63;;;36.73;;
3036;SDS011;1528;52.550;13.408;2022-10-31T10:03:39;37.30;;;34.30;;
3036;SDS011;1528;52.550;13.408;2022-10-31T10:06:28;46.57;;;43.30;;
3036;SDS011;1528;52.550;13.408;2022-10-31T10:09:17;35.60;;;33.00;;
3036;SDS011;1528;52.550;13.408;2022-10-31T10:12:07;39.30;;;36.10;;
3036;SDS011;1528;52.550;13.408;2022-10-31T10:15:04;39.70;;;36.20;;
3036;SDS011;1528;52.550;13.408;2022-10-31T10:18:04;38.03;;;34.83;;
3036;SDS011;1528;52.550;13.408;2022-10-31T10:21:01;37.93;;;34.90;;
3036;SDS011;1528;52.550;13.408;2022-10-31T10:23:56;42.43;;;39.30;;
3036;SDS011;1528;52.550;13.408;2022-10-31T10:26:51;41.40;;;38.23;;
3036;SDS011;1528;52.550;13.408;2022-10-31T10:29:44;41.03;;;38.00;;
3036;SDS011;1528;52.550;13.408;2022-10-31T10:32:38;46.53;;;43.40;;
3036;SDS011;1528;52.550;13.408;2022-10-31T10:35:29;39.80;;;37.00;;
3036;SDS011;1528;52.550;13.408;2022-10-31T10:38:22;39.93;;;36.47;;
3036;SDS011;1528;52.550;13.408;2022-10-31T10:41:12;36.80;;;33.90;;
3036;SDS011;1528;52.550;13.408;2022-10-31T10:44:01;40.07;;;36.57;;
3036;SDS011;1528;52.550;13.408;2022-10-31T10:46:51;36.23;;;33.53;;
3036;SDS011;1528;52.550;13.408;2022-10-31T10:49:58;38.17;;;34.93;;
3036;SDS011;1528;52.550;13.408;2022-10-31T10:52:50;37.70;;;34.73;;
3036;SDS011;1528;52.550;13.408;2022-10-31T10:55:45;42.87;;;39.13;;
3036;SDS011;1528;52.550;13.408;2022-10-31T10:58:35;38.00;;;35.10;;
3036;SDS011;1528;52.550;13.408;2022-10-31T11:01:22;39.37;;;35.90;;
3036;SDS011;1528;52.550;13.408;2022-10-31T11:04:14;39.43;;;36.50;;
3036;SDS011;1528;52.550;13.408;2022-10-31T11:07:11;36.77;;;34.13;;
3036;SDS011;1528;52.550;13.408;2022-10-31T11:10:02;36.10;;;33.17;;
3036;SDS011;1528;52.550;13.408;2022-10-31T11:13:01;37.60;;;34.47;;
3036;SDS011;1528;52.550;13.408;2022-10-31T11:15:54;35.37;;;32.03;;
3036;SDS011;1528;52.550;13.408;2022-10-31T11:18:43;37.37;;;34.07;;
3036;SDS011;1528;52.550;13.408;2022-10-31T11:21:31;39.17;;;35.87;;
3036;SDS011;1528;52.550;13.408;2022-10-31T11:24:18;35.33;;;32.20;;
3036;SDS011;1528;52.550;13.408;2022-10-31T11:27:09;40.27;;;37.17;;
3036;SDS011;1528;52.550;13.408;2022-10-31T11:30:09;38.83;;;35.73;;
3036;SDS011;1528;52.550;13.408;2022-10-31T11:32:57;38.77;;;35.63;;
3036;SDS011;1528;52.550;13.408;2022-10-31T11:35:43;37.43;;;34.07;;
3036;SDS011;1528;52.550;13.408;2022-10-31T11:38:31;37.03;;;33.87;;
3036;SDS011;1528;52.550;13.408;2022-10-31T11:41:23;37.20;;;34.43;;
3036;SDS011;1528;52.550;13.408;2022-10-31T11:44:13;37.97;;;34.80;;
3036;SDS011;1528;52.550;13.408;2022-10-31T11:47:04;35.50;;;32.50;;
3036;SDS011;1528;52.550;13.408;2022-10-31T11:49:56;36.37;;;33.03;;
3036;SDS011;1528;52.550;13.408;2022-10-31T11:52:44;37.83;;;34.80;;
3036;SDS011;1528;52.550;13.408;2022-10-31T11:55:31;34.30;;;31.50;;
3036;SDS011;1528;52.550;13.408;2022-10-31T11:58:21;40.33;;;37.03;;
3036;SDS011;1528;52.550;13.408;2022-10-31T12:01:18;39.07;;;35.40;;
3036;SDS011;1528;52.550;13.408;2022-10-31T12:04:10;37.43;;;34.23;;
3036;SDS011;1528;52.550;13.408;2022-10-31T12:06:57;37.30;;;34.30;;
3036;SDS011;1528;52.550;13.408;2022-10-31T12:09:43;36.13;;;33.00;;
3036;SDS011;1528;52.550;13.408;2022-10-31T12:12:37;39.70;;;36.33;;
3036;SDS011;1528;52.550;13.408;2022-10-31T12:15:40;41.17;;;37.70;;
3036;SDS011;1528;52.550;13.408;2022-10-31T12:18:38;40.90;;;37.60;;
3036;SDS011;1528;52.550;13.408;2022-10-31T12:21:39;37.83;;;34.50;;
3036;SDS011;1528;52.550;13.408;2022-10-31T12:24:42;39.43;;;35.50;;
3036;SDS011;1528;52.550;13.408;2022-10-31T12:27:43;36.90;;;33.90;;
3036;SDS011;1528;52.550;13.408;2022-10-31T12:30:46;36.03;;;32.83;;
3036;SDS011;1528;52.550;13.408;2022-10-31T12:33:43;34.37;;;31.50;;
3036;SDS011;1528;52.550;13.408;2022-10-31T12:36:40;38.07;;;35.00;;
3036;SDS011;1528;52.550;13.408;2022-10-31T12:39:33;37.93;;;34.50;;
3036;SDS011;1528;52.550;13.408;2022-10-31T12:42:33;35.93;;;33.10;;
3036;SDS011;1528;52.550;13.408;2022-10-31T12:45:35;37.23;;;33.83;;
3036;SDS011;1528;52.550;13.408;2022-10-31T12:48:42;36.83;;;33.63;;
3036;SDS011;1528;52.550;13.408;2022-10-31T12:51:39;38.63;;;34.73;;
3036;SDS011;1528;52.550;13.408;2022-10-31T12:54:36;39.40;;;36.40;;
3036;SDS011;1528;52.550;13.408;2022-10-31T12:57:32;40.17;;;36.80;;
3036;SDS011;1528;52.550;13.408;2022-10-31T13:00:20;38.67;;;35.50;;
3036;SDS011;1528;52.550;13.408;2022-10-31T13:03:12;39.77;;;36.40;;
3036;SDS011;1528;52.550;13.408;2022-10-31T13:06:07;42.27;;;38.83;;
3036;SDS011;1528;52.550;13.408;2022-10-31T13:09:00;42.30;;;39.10;;
3036;SDS011;1528;52.550;13.408;2022-10-31T13:11:51;42.87;;;39.47;;
3036;SDS011;1528;52.550;13.408;2022-10-31T13:14:42;43.40;;;40.10;;
3036;SDS011;1528;52.550;13.408;2022-10-31T13:17:33;36.03;;;33.20;;
3036;SDS011;1528;52.550;13.408;2022-10-31T13:20:23;42.27;;;38.67;;
3036;SDS011;1528;52.550;13.408;2022-10-31T13:23:13;40.47;;;37.27;;
3036;SDS011;1528;52.550;13.408;2022-10-31T13:26:16;37.90;;;34.90;;
3036;SDS011;1528;52.550;13.408;2022-10-31T13:29:09;36.40;;;33.53;;
3036;SDS011;1528;52.550;13.408;2022-10-31T13:32:03;47.73;;;44.77;;
3036;SDS011;1528;52.550;13.408;2022-10-31T13:34:50;38.60;;;35.53;;
3036;SDS011;1528;52.550;13.408;2022-10-31T13:37:38;38.90;;;35.70;;
3036;SDS011;1528;52.550;13.408;2022-10-31T13:40:32;39.00;;;36.20;;
3036;SDS011;1528;52.550;13.408;2022-10-31T13:43:26;37.40;;;34.47;;
3036;SDS011;1528;52.550;13.408;2022-10-31T13:46:23;35.43;;;32.57;;
3036;SDS011;1528;52.550;13.408;2022-10-31T13:52:26;38.73;;;35.10;;
3036;SDS011;1528;52.550;13.408;2022-10-31T13:58:23;33.00;;;30.27;;
3036;SDS011;1528;52.550;13.408;2022-10-31T14:01:13;34.57;;;31.77;;
3036;SDS011;1528;52.550;13.408;2022-10-31T14:04:04;36.37;;;33.27;;
3036;SDS011;1528;52.550;13.408;2022-10-31T14:06:53;39.40;;;36.37;;
3036;SDS011;1528;52.550;13.408;2022-10-31T14:09:52;37.90;;;35.00;;
3036;SDS011;1528;52.550;13.408;2022-10-31T14:12:40;35.13;;;32.10;;
3036;SDS011;1528;52.550;13.408;2022-10-31T14:15:29;38.17;;;34.70;;
3036;SDS011;1528;52.550;13.408;2022-10-31T14:18:19;37.63;;;34.33;;
3036;SDS011;1528;52.550;13.408;2022-10-31T14:21:15;45.97;;;42.27;;
3036;SDS011;1528;52.550;13.408;2022-10-31T14:24:15;40.00;;;36.40;;
3036;SDS011;1528;52.550;13.408;2022-10-31T14:27:42;42.27;;;38.43;;
3036;SDS011;1528;52.550;13.408;2022-10-31T14:30:31;45.30;;;41.40;;
3036;SDS011;1528;52.550;13.408;2022-10-31T14:33:17;43.63;;;40.00;;
3036;SDS011;1528;52.550;13.408;2022-10-31T14:36:17;44.10;;;40.13;;
3036;SDS011;1528;52.550;13.408;2022-10-31T14:39:11;46.87;;;42.80;;
3036;SDS011;1528;52.550;13.408;2022-10-31T14:42:10;46.90;;;42.60;;
3036;SDS011;1528;52.550;13.408;2022-10-31T14:45:09;47.60;;;43.50;;
3036;SDS011;1528;52.550;13.408;2022-10-31T14:48:15;48.10;;;44.50;;
3036;SDS011;1528;52.550;13.408;2022-10-31T14:51:15;47.00;;;42.90;;
3036;SDS011;1528;52.550;13.408;2022-10-31T14:54:04;45.33;;;41.67;;
3036;SDS011;1528;52.550;13.408;2022-10-31T14:56:52;45.70;;;41.63;;
3036;SDS011;1528;52.550;13.408;2022-10-31T14:59:40;46.47;;;42.37;;
3036;SDS011;1528;52.550;13.408;2022-10-31T15:02:31;46.07;;;42.17;;
3036;SDS011;1528;52.550;13.408;2022-10-31T15:05:21;46.97;;;42.67;;
3036;SDS011;1528;52.550;13.408;2022-10-31T15:08:12;44.63;;;40.37;;
3036;SDS011;1528;52.550;13.408;2022-10-31T15:10:58;46.00;;;41.53;;
3036;SDS011;1528;52.550;13.408;2022-10-31T15:13:49;48.30;;;44.17;;
3036;SDS011;1528;52.550;13.408;2022-10-31T15:16:37;47.13;;;42.70;;
3036;SDS011;1528;52.550;13.408;2022-10-31T15:19:26;47.57;;;43.27;;
3036;SDS011;1528;52.550;13.408;2022-10-31T15:22:16;50.50;;;45.57;;
3036;SDS011;1528;52.550;13.408;2022-10-31T15:25:05;52.83;;;47.83;;
3036;SDS011;1528;52.550;13.408;2022-10-31T15:27:56;54.17;;;48.90;;
3036;SDS011;1528;52.550;13.408;2022-10-31T15:30:49;56.20;;;51.30;;
3036;SDS011;1528;52.550;13.408;2022-10-31T15:33:39;53.03;;;48.37;;
3036;SDS011;1528;52.550;13.408;2022-10-31T15:36:26;59.13;;;54.03;;
3036;SDS011;1528;52.550;13.408;2022-10-31T15:39:12;53.90;;;49.03;;
3036;SDS011;1528;52.550;13.408;2022-10-31T15:41:59;54.33;;;49.43;;
3036;SDS011;1528;52.550;13.408;2022-10-31T15:44:44;51.03;;;46.47;;
3036;SDS011;1528;52.550;13.408;2022-10-31T15:47:33;52.87;;;47.80;;
3036;SDS011;1528;52.550;13.408;2022-10-31T15:50:19;51.97;;;46.73;;
3036;SDS011;1528;52.550;13.408;2022-10-31T15:53:14;51.90;;;47.20;;
3036;SDS011;1528;52.550;13.408;2022-10-31T15:56:05;57.73;;;52.17;;
3036;SDS011;1528;52.550;13.408;2022-10-31T15:58:52;53.50;;;48.47;;
3036;SDS011;1528;52.550;13.408;2022-10-31T16:01:39;52.33;;;47.30;;
3036;SDS011;1528;52.550;13.408;2022-10-31T16:04:28;53.73;;;48.70;;
3036;SDS011;1528;52.550;13.408;2022-10-31T16:07:14;52.27;;;46.97;;
3036;SDS011;1528;52.550;13.408;2022-10-31T16:10:02;53.90;;;48.40;;
3036;SDS011;1528;52.550;13.408;2022-10-31T16:12:50;50.77;;;45.93;;
3036;SDS011;1528;52.550;13.408;2022-10-31T16:15:36;55.20;;;49.50;;
3036;SDS011;1528;52.550;13.408;2022-10-31T16:18:22;56.40;;;51.20;;
3036;SDS011;1528;52.550;13.408;2022-10-31T16:21:08;56.57;;;51.47;;
3036;SDS011;1528;52.550;13.408;2022-10-31T16:23:57;54.47;;;49.33;;
3036;SDS011;1528;52.550;13.408;2022-10-31T16:26:49;57.40;;;51.83;;
3036;SDS011;1528;52.550;13.408;2022-10-31T16:29:38;57.20;;;51.50;;
3036;SDS011;1528;52.550;13.408;2022-10-31T16:32:28;55.70;;;50.30;;
3036;SDS011;1528;52.550;13.408;2022-10-31T16:35:23;56.20;;;50.60;;
3036;SDS011;1528;52.550;13.408;2022-10-31T16:38:10;53.37;;;48.43;;
3036;SDS011;1528;52.550;13.408;2022-10-31T16:40:55;54.70;;;49.50;;
3036;SDS011;1528;52.550;13.408;2022-10-31T16:43:41;58.57;;;53.17;;
3036;SDS011;1528;52.550;13.408;2022-10-31T16:46:28;58.93;;;53.03;;
3036;SDS011;1528;52.550;13.408;2022-10-31T16:49:13;57.37;;;52.00;;
3036;SDS011;1528;52.550;13.408;2022-10-31T16:52:00;60.67;;;54.73;;